sensor_id;sensor_type;location;lat;lon;timestamp;P1;durP1;ratioP1;P2;durP2;ratioP2
25391;SDS011;13329;48.402;11.718;2023-06-26T00:00:21;7.65;;;3.75;;
25391;SDS011;13329;48.402;11.718;2023-06-26T00:02:46;7.43;;;4.13;;
25391;SDS011;13329;48.402;11.718;2023-06-26T00:05:11;8.43;;;4.47;;
25391;SDS011;13329;48.402;11.718;2023-06-26T00:07:37;7.35;;;3.92;;
25391;SDS011;13329;48.402;11.718;2023-06-26T00:10:02;8.03;;;4.20;;
25391;SDS011;13329;48.402;11.718;2023-06-26T00:12:28;5.95;;;3.88;;
25391;SDS011;13329;48.402;11.718;2023-06-26T00:14:53;7.22;;;4.10;;
25391;SDS011;13329;48.402;11.718;2023-06-26T00:17:18;6.90;;;3.67;;
25391;SDS011;13329;48.402;11.718;2023-06-26T00:19:44;6.93;;;3.97;;
25391;SDS011;13329;48.402;11.718;2023-06-26T00:22:09;6.37;;;3.67;;
25391;SDS011;13329;48.402;11.718;2023-06-26T00:24:34;7.57;;;4.05;;
25391;SDS011;13329;48.402;11.718;2023-06-26T00:26:59;6.83;;;4.03;;
25391;SDS011;13329;48.402;11.718;2023-06-26T00:29:24;6.20;;;3.43;;
25391;SDS011;13329;48.402;11.718;2023-06-26T00:31:49;6.22;;;3.88;;
25391;SDS011;13329;48.402;11.718;2023-06-26T00:34:15;7.50;;;4.13;;
25391;SDS011;13329;48.402;11.718;2023-06-26T00:36:40;6.35;;;3.95;;
25391;SDS011;13329;48.402;11.718;2023-06-26T00:39:08;7.43;;;4.20;;
25391;SDS011;13329;48.402;11.718;2023-06-26T00:41:33;8.50;;;4.13;;
25391;SDS011;13329;48.402;11.718;2023-06-26T00:43:58;6.07;;;3.83;;
25391;SDS011;13329;48.402;11.718;2023-06-26T00:46:23;7.87;;;3.90;;
25391;SDS011;13329;48.402;11.718;2023-06-26T00:48:49;7.75;;;3.83;;
25391;SDS011;13329;48.402;11.718;2023-06-26T00:51:14;8.60;;;4.00;;
25391;SDS011;13329;48.402;11.718;2023-06-26T00:53:40;6.90;;;3.72;;
25391;SDS011;13329;48.402;11.718;2023-06-26T00:56:06;7.00;;;4.03;;
25391;SDS011;13329;48.402;11.718;2023-06-26T00:58:31;5.47;;;3.63;;
25391;SDS011;13329;48.402;11.718;2023-06-26T01:00:57;7.50;;;3.97;;
25391;SDS011;13329;48.402;11.718;2023-06-26T01:03:22;7.13;;;4.22;;
25391;SDS011;13329;48.402;11.718;2023-06-26T01:05:48;7.13;;;3.85;;
25391;SDS011;13329;48.402;11.718;2023-06-26T01:08:15;6.57;;;4.20;;
25391;SDS011;13329;48.402;11.718;2023-06-26T01:10:40;7.85;;;3.95;;
25391;SDS011;13329;48.402;11.718;2023-06-26T01:13:05;6.55;;;3.95;;
25391;SDS011;13329;48.402;11.718;2023-06-26T01:15:30;7.72;;;4.40;;
25391;SDS011;13329;48.402;11.718;2023-06-26T01:17:56;8.03;;;4.20;;
25391;SDS011;13329;48.402;11.718;2023-06-26T01:20:24;11.00;;;3.78;;
25391;SDS011;13329;48.402;11.718;2023-06-26T01:25:41;7.13;;;4.30;;
25391;SDS011;13329;48.402;11.718;2023-06-26T01:28:10;8.30;;;4.63;;
25391;SDS011;13329;48.402;11.718;2023-06-26T01:30:38;6.55;;;4.15;;
25391;SDS011;13329;48.402;11.718;2023-06-26T01:33:04;7.20;;;4.13;;
25391;SDS011;13329;48.402;11.718;2023-06-26T01:35:30;5.97;;;3.85;;
25391;SDS011;13329;48.402;11.718;2023-06-26T01:38:11;7.65;;;4.28;;
25391;SDS011;13329;48.402;11.718;2023-06-26T01:40:36;7.60;;;4.40;;
25391;SDS011;13329;48.402;11.718;2023-06-26T01:43:01;8.93;;;4.15;;
25391;SDS011;13329;48.402;11.718;2023-06-26T01:45:27;9.07;;;4.18;;
25391;SDS011;13329;48.402;11.718;2023-06-26T01:47:52;7.35;;;4.03;;
25391;SDS011;13329;48.402;11.718;2023-06-26T01:50:20;8.10;;;4.22;;
25391;SDS011;13329;48.402;11.718;2023-06-26T01:57:40;10.93;;;4.40;;
25391;SDS011;13329;48.402;11.718;2023-06-26T02:00:06;7.88;;;4.40;;
25391;SDS011;13329;48.402;11.718;2023-06-26T02:02:35;8.43;;;4.35;;
25391;SDS011;13329;48.402;11.718;2023-06-26T02:05:00;8.60;;;4.38;;
25391;SDS011;13329;48.402;11.718;2023-06-26T02:07:25;7.67;;;4.30;;
25391;SDS011;13329;48.402;11.718;2023-06-26T02:09:50;6.83;;;4.03;;
25391;SDS011;13329;48.402;11.718;2023-06-26T02:12:16;8.13;;;4.03;;
25391;SDS011;13329;48.402;11.718;2023-06-26T02:14:41;9.03;;;4.30;;
25391;SDS011;13329;48.402;11.718;2023-06-26T02:17:06;6.93;;;4.27;;
25391;SDS011;13329;48.402;11.718;2023-06-26T02:19:33;6.88;;;4.10;;
25391;SDS011;13329;48.402;11.718;2023-06-26T02:21:59;7.97;;;4.50;;
25391;SDS011;13329;48.402;11.718;2023-06-26T02:24:24;9.02;;;4.57;;
25391;SDS011;13329;48.402;11.718;2023-06-26T02:26:49;7.53;;;4.30;;
25391;SDS011;13329;48.402;11.718;2023-06-26T02:29:14;7.40;;;3.97;;
25391;SDS011;13329;48.402;11.718;2023-06-26T02:31:40;9.25;;;4.80;;
25391;SDS011;13329;48.402;11.718;2023-06-26T02:34:06;9.60;;;4.57;;
25391;SDS011;13329;48.402;11.718;2023-06-26T02:36:31;7.28;;;4.40;;
25391;SDS011;13329;48.402;11.718;2023-06-26T02:38:56;7.57;;;4.10;;
25391;SDS011;13329;48.402;11.718;2023-06-26T02:41:21;7.68;;;4.65;;
25391;SDS011;13329;48.402;11.718;2023-06-26T02:43:47;8.67;;;4.67;;
25391;SDS011;13329;48.402;11.718;2023-06-26T02:46:12;8.33;;;4.53;;
25391;SDS011;13329;48.402;11.718;2023-06-26T02:48:37;8.68;;;4.68;;
25391;SDS011;13329;48.402;11.718;2023-06-26T02:51:02;7.18;;;3.78;;
25391;SDS011;13329;48.402;11.718;2023-06-26T02:53:27;8.38;;;4.15;;
25391;SDS011;13329;48.402;11.718;2023-06-26T02:55:52;7.13;;;4.53;;
25391;SDS011;13329;48.402;11.718;2023-06-26T02:58:18;9.60;;;4.53;;
25391;SDS011;13329;48.402;11.718;2023-06-26T03:00:43;6.70;;;4.05;;
25391;SDS011;13329;48.402;11.718;2023-06-26T03:03:08;9.27;;;4.47;;
25391;SDS011;13329;48.402;11.718;2023-06-26T03:05:34;7.88;;;4.57;;
25391;SDS011;13329;48.402;11.718;2023-06-26T03:07:59;8.67;;;4.70;;
25391;SDS011;13329;48.402;11.718;2023-06-26T03:10:24;7.83;;;4.93;;
25391;SDS011;13329;48.402;11.718;2023-06-26T03:12:49;6.60;;;4.20;;
25391;SDS011;13329;48.402;11.718;2023-06-26T03:15:14;9.73;;;4.15;;
25391;SDS011;13329;48.402;11.718;2023-06-26T03:17:40;8.00;;;4.30;;
25391;SDS011;13329;48.402;11.718;2023-06-26T03:20:05;9.63;;;4.43;;
25391;SDS011;13329;48.402;11.718;2023-06-26T03:22:32;8.18;;;4.20;;
25391;SDS011;13329;48.402;11.718;2023-06-26T03:24:57;7.85;;;4.60;;
25391;SDS011;13329;48.402;11.718;2023-06-26T03:27:22;10.77;;;4.30;;
25391;SDS011;13329;48.402;11.718;2023-06-26T03:29:47;9.47;;;4.50;;
25391;SDS011;13329;48.402;11.718;2023-06-26T03:32:12;8.67;;;4.40;;
25391;SDS011;13329;48.402;11.718;2023-06-26T03:34:37;9.70;;;5.00;;
25391;SDS011;13329;48.402;11.718;2023-06-26T03:37:03;7.47;;;4.40;;
25391;SDS011;13329;48.402;11.718;2023-06-26T03:39:28;9.73;;;4.87;;
25391;SDS011;13329;48.402;11.718;2023-06-26T03:41:53;9.40;;;4.60;;
25391;SDS011;13329;48.402;11.718;2023-06-26T03:44:19;9.77;;;5.30;;
25391;SDS011;13329;48.402;11.718;2023-06-26T03:46:45;9.57;;;4.23;;
25391;SDS011;13329;48.402;11.718;2023-06-26T03:49:10;8.77;;;4.47;;
25391;SDS011;13329;48.402;11.718;2023-06-26T03:51:35;8.68;;;4.25;;
25391;SDS011;13329;48.402;11.718;2023-06-26T03:54:01;7.63;;;4.43;;
25391;SDS011;13329;48.402;11.718;2023-06-26T03:56:26;9.73;;;5.00;;
25391;SDS011;13329;48.402;11.718;2023-06-26T03:58:51;9.43;;;4.60;;
25391;SDS011;13329;48.402;11.718;2023-06-26T04:01:16;8.73;;;4.10;;
25391;SDS011;13329;48.402;11.718;2023-06-26T04:03:41;8.50;;;5.27;;
25391;SDS011;13329;48.402;11.718;2023-06-26T04:06:06;8.15;;;4.53;;
25391;SDS011;13329;48.402;11.718;2023-06-26T04:08:31;10.37;;;4.90;;
25391;SDS011;13329;48.402;11.718;2023-06-26T04:10:57;8.87;;;4.73;;
25391;SDS011;13329;48.402;11.718;2023-06-26T04:13:23;9.10;;;4.72;;
25391;SDS011;13329;48.402;11.718;2023-06-26T04:15:48;9.32;;;4.88;;
25391;SDS011;13329;48.402;11.718;2023-06-26T04:18:13;8.53;;;4.73;;
25391;SDS011;13329;48.402;11.718;2023-06-26T04:20:39;8.90;;;4.50;;
25391;SDS011;13329;48.402;11.718;2023-06-26T04:23:05;8.70;;;4.78;;
25391;SDS011;13329;48.402;11.718;2023-06-26T04:25:31;10.40;;;4.67;;
25391;SDS011;13329;48.402;11.718;2023-06-26T04:27:56;8.98;;;5.00;;
25391;SDS011;13329;48.402;11.718;2023-06-26T04:30:21;9.40;;;5.22;;
25391;SDS011;13329;48.402;11.718;2023-06-26T04:32:46;8.70;;;4.83;;
25391;SDS011;13329;48.402;11.718;2023-06-26T04:35:11;9.88;;;5.15;;
25391;SDS011;13329;48.402;11.718;2023-06-26T04:37:36;9.70;;;4.87;;
25391;SDS011;13329;48.402;11.718;2023-06-26T04:40:02;11.03;;;4.87;;
25391;SDS011;13329;48.402;11.718;2023-06-26T04:42:28;8.63;;;5.35;;
25391;SDS011;13329;48.402;11.718;2023-06-26T04:44:54;10.10;;;5.33;;
25391;SDS011;13329;48.402;11.718;2023-06-26T04:47:19;9.13;;;5.57;;
25391;SDS011;13329;48.402;11.718;2023-06-26T04:49:44;8.93;;;5.03;;
25391;SDS011;13329;48.402;11.718;2023-06-26T04:52:10;10.82;;;5.38;;
25391;SDS011;13329;48.402;11.718;2023-06-26T04:54:38;11.57;;;5.50;;
25391;SDS011;13329;48.402;11.718;2023-06-26T04:57:03;10.43;;;5.30;;
25391;SDS011;13329;48.402;11.718;2023-06-26T04:59:28;11.60;;;6.18;;
25391;SDS011;13329;48.402;11.718;2023-06-26T05:01:54;9.57;;;5.83;;
25391;SDS011;13329;48.402;11.718;2023-06-26T05:04:19;9.60;;;5.77;;
25391;SDS011;13329;48.402;11.718;2023-06-26T05:06:44;12.40;;;5.97;;
25391;SDS011;13329;48.402;11.718;2023-06-26T05:09:09;12.47;;;6.80;;
25391;SDS011;13329;48.402;11.718;2023-06-26T05:11:35;11.85;;;6.15;;
25391;SDS011;13329;48.402;11.718;2023-06-26T05:14:01;13.70;;;6.80;;
25391;SDS011;13329;48.402;11.718;2023-06-26T05:16:26;14.23;;;6.93;;
25391;SDS011;13329;48.402;11.718;2023-06-26T05:18:51;14.03;;;7.03;;
25391;SDS011;13329;48.402;11.718;2023-06-26T05:21:17;14.10;;;6.80;;
25391;SDS011;13329;48.402;11.718;2023-06-26T05:23:42;12.73;;;7.03;;
25391;SDS011;13329;48.402;11.718;2023-06-26T05:26:09;12.35;;;6.95;;
25391;SDS011;13329;48.402;11.718;2023-06-26T05:28:35;14.32;;;6.95;;
25391;SDS011;13329;48.402;11.718;2023-06-26T05:31:01;12.07;;;6.50;;
25391;SDS011;13329;48.402;11.718;2023-06-26T05:33:26;13.68;;;7.30;;
25391;SDS011;13329;48.402;11.718;2023-06-26T05:35:52;12.60;;;6.82;;
25391;SDS011;13329;48.402;11.718;2023-06-26T05:38:18;14.02;;;7.70;;
25391;SDS011;13329;48.402;11.718;2023-06-26T05:40:43;15.27;;;7.55;;
25391;SDS011;13329;48.402;11.718;2023-06-26T05:43:08;16.40;;;8.32;;
25391;SDS011;13329;48.402;11.718;2023-06-26T05:45:34;15.48;;;8.38;;
25391;SDS011;13329;48.402;11.718;2023-06-26T05:47:59;13.53;;;7.93;;
25391;SDS011;13329;48.402;11.718;2023-06-26T05:50:24;14.18;;;7.72;;
25391;SDS011;13329;48.402;11.718;2023-06-26T05:52:50;14.38;;;7.28;;
25391;SDS011;13329;48.402;11.718;2023-06-26T05:55:15;13.48;;;7.28;;
25391;SDS011;13329;48.402;11.718;2023-06-26T05:57:41;14.48;;;7.78;;
25391;SDS011;13329;48.402;11.718;2023-06-26T06:00:06;14.55;;;7.47;;
25391;SDS011;13329;48.402;11.718;2023-06-26T06:02:35;17.45;;;9.00;;
25391;SDS011;13329;48.402;11.718;2023-06-26T06:05:01;17.10;;;9.25;;
25391;SDS011;13329;48.402;11.718;2023-06-26T06:07:26;15.53;;;8.27;;
25391;SDS011;13329;48.402;11.718;2023-06-26T06:09:51;14.15;;;7.32;;
25391;SDS011;13329;48.402;11.718;2023-06-26T06:12:16;14.82;;;7.45;;
25391;SDS011;13329;48.402;11.718;2023-06-26T06:14:41;12.97;;;7.10;;
25391;SDS011;13329;48.402;11.718;2023-06-26T06:17:06;13.45;;;6.93;;
25391;SDS011;13329;48.402;11.718;2023-06-26T06:19:32;15.57;;;8.52;;
25391;SDS011;13329;48.402;11.718;2023-06-26T06:21:57;15.77;;;7.60;;
25391;SDS011;13329;48.402;11.718;2023-06-26T06:24:22;16.38;;;7.45;;
25391;SDS011;13329;48.402;11.718;2023-06-26T06:26:47;17.00;;;7.95;;
25391;SDS011;13329;48.402;11.718;2023-06-26T06:29:12;16.27;;;7.63;;
25391;SDS011;13329;48.402;11.718;2023-06-26T06:31:37;13.33;;;7.23;;
25391;SDS011;13329;48.402;11.718;2023-06-26T06:34:02;13.40;;;7.23;;
25391;SDS011;13329;48.402;11.718;2023-06-26T06:36:28;13.67;;;7.33;;
25391;SDS011;13329;48.402;11.718;2023-06-26T06:38:53;12.90;;;6.97;;
25391;SDS011;13329;48.402;11.718;2023-06-26T06:41:19;13.60;;;7.30;;
25391;SDS011;13329;48.402;11.718;2023-06-26T06:43:44;13.43;;;6.45;;
25391;SDS011;13329;48.402;11.718;2023-06-26T06:46:09;12.10;;;7.37;;
25391;SDS011;13329;48.402;11.718;2023-06-26T06:48:34;14.63;;;7.50;;
25391;SDS011;13329;48.402;11.718;2023-06-26T06:51:00;14.67;;;7.83;;
25391;SDS011;13329;48.402;11.718;2023-06-26T06:53:25;18.90;;;7.38;;
25391;SDS011;13329;48.402;11.718;2023-06-26T06:55:50;15.70;;;8.13;;
25391;SDS011;13329;48.402;11.718;2023-06-26T06:58:15;12.52;;;7.40;;
25391;SDS011;13329;48.402;11.718;2023-06-26T07:00:49;11.18;;;6.18;;
25391;SDS011;13329;48.402;11.718;2023-06-26T07:03:16;14.45;;;7.80;;
25391;SDS011;13329;48.402;11.718;2023-06-26T07:05:41;12.75;;;7.20;;
25391;SDS011;13329;48.402;11.718;2023-06-26T07:08:07;13.85;;;6.93;;
25391;SDS011;13329;48.402;11.718;2023-06-26T07:10:32;12.07;;;6.43;;
25391;SDS011;13329;48.402;11.718;2023-06-26T07:12:57;12.30;;;6.97;;
25391;SDS011;13329;48.402;11.718;2023-06-26T07:15:22;14.33;;;6.60;;
25391;SDS011;13329;48.402;11.718;2023-06-26T07:17:47;12.90;;;7.00;;
25391;SDS011;13329;48.402;11.718;2023-06-26T07:20:12;13.35;;;6.50;;
25391;SDS011;13329;48.402;11.718;2023-06-26T07:22:40;12.73;;;6.57;;
25391;SDS011;13329;48.402;11.718;2023-06-26T07:25:06;9.35;;;5.45;;
25391;SDS011;13329;48.402;11.718;2023-06-26T07:27:34;11.80;;;6.15;;
25391;SDS011;13329;48.402;11.718;2023-06-26T07:29:59;11.80;;;6.20;;
25391;SDS011;13329;48.402;11.718;2023-06-26T07:32:24;10.35;;;5.95;;
25391;SDS011;13329;48.402;11.718;2023-06-26T07:34:49;14.48;;;6.32;;
25391;SDS011;13329;48.402;11.718;2023-06-26T07:37:14;9.73;;;5.30;;
25391;SDS011;13329;48.402;11.718;2023-06-26T07:39:39;13.37;;;5.20;;
25391;SDS011;13329;48.402;11.718;2023-06-26T07:42:05;9.30;;;5.40;;
25391;SDS011;13329;48.402;11.718;2023-06-26T07:44:30;7.47;;;5.03;;
25391;SDS011;13329;48.402;11.718;2023-06-26T07:46:55;11.33;;;5.67;;
25391;SDS011;13329;48.402;11.718;2023-06-26T07:49:20;9.10;;;5.37;;
25391;SDS011;13329;48.402;11.718;2023-06-26T07:51:45;8.83;;;5.13;;
25391;SDS011;13329;48.402;11.718;2023-06-26T07:54:11;11.02;;;5.53;;
25391;SDS011;13329;48.402;11.718;2023-06-26T07:56:52;9.57;;;5.40;;
25391;SDS011;13329;48.402;11.718;2023-06-26T07:59:18;10.73;;;5.43;;
25391;SDS011;13329;48.402;11.718;2023-06-26T08:01:43;8.60;;;5.13;;
25391;SDS011;13329;48.402;11.718;2023-06-26T08:04:08;9.97;;;5.60;;
25391;SDS011;13329;48.402;11.718;2023-06-26T08:06:35;10.25;;;5.50;;
25391;SDS011;13329;48.402;11.718;2023-06-26T08:09:03;8.95;;;5.20;;
25391;SDS011;13329;48.402;11.718;2023-06-26T08:11:29;8.27;;;5.32;;
25391;SDS011;13329;48.402;11.718;2023-06-26T08:13:55;8.63;;;5.17;;
25391;SDS011;13329;48.402;11.718;2023-06-26T08:16:20;10.17;;;5.77;;
25391;SDS011;13329;48.402;11.718;2023-06-26T08:18:45;11.10;;;6.15;;
25391;SDS011;13329;48.402;11.718;2023-06-26T08:21:10;10.23;;;5.30;;
25391;SDS011;13329;48.402;11.718;2023-06-26T08:23:35;10.40;;;4.90;;
25391;SDS011;13329;48.402;11.718;2023-06-26T08:26:00;10.32;;;5.60;;
25391;SDS011;13329;48.402;11.718;2023-06-26T08:28:25;9.13;;;5.53;;
25391;SDS011;13329;48.402;11.718;2023-06-26T08:30:51;12.00;;;5.87;;
25391;SDS011;13329;48.402;11.718;2023-06-26T08:33:16;9.57;;;5.67;;
25391;SDS011;13329;48.402;11.718;2023-06-26T08:35:41;9.87;;;5.20;;
25391;SDS011;13329;48.402;11.718;2023-06-26T08:38:07;9.43;;;5.28;;
25391;SDS011;13329;48.402;11.718;2023-06-26T08:40:34;9.27;;;5.30;;
25391;SDS011;13329;48.402;11.718;2023-06-26T08:42:59;9.88;;;5.30;;
25391;SDS011;13329;48.402;11.718;2023-06-26T08:45:25;8.73;;;5.47;;
25391;SDS011;13329;48.402;11.718;2023-06-26T08:47:51;8.97;;;5.17;;
25391;SDS011;13329;48.402;11.718;2023-06-26T08:50:18;8.60;;;5.47;;
25391;SDS011;13329;48.402;11.718;2023-06-26T08:52:53;9.18;;;5.38;;
25391;SDS011;13329;48.402;11.718;2023-06-26T08:55:20;9.00;;;4.75;;
25391;SDS011;13329;48.402;11.718;2023-06-26T08:57:46;9.30;;;5.45;;
25391;SDS011;13329;48.402;11.718;2023-06-26T09:00:12;8.07;;;5.30;;
25391;SDS011;13329;48.402;11.718;2023-06-26T09:02:39;9.23;;;5.07;;
25391;SDS011;13329;48.402;11.718;2023-06-26T09:05:05;9.05;;;5.10;;
25391;SDS011;13329;48.402;11.718;2023-06-26T09:07:30;10.55;;;5.43;;
25391;SDS011;13329;48.402;11.718;2023-06-26T09:09:56;11.15;;;4.97;;
25391;SDS011;13329;48.402;11.718;2023-06-26T09:12:21;7.00;;;4.43;;
25391;SDS011;13329;48.402;11.718;2023-06-26T09:14:46;7.30;;;4.60;;
25391;SDS011;13329;48.402;11.718;2023-06-26T09:17:12;8.25;;;4.82;;
25391;SDS011;13329;48.402;11.718;2023-06-26T09:19:38;8.45;;;5.03;;
25391;SDS011;13329;48.402;11.718;2023-06-26T09:22:03;7.32;;;4.28;;
25391;SDS011;13329;48.402;11.718;2023-06-26T09:24:28;8.53;;;4.60;;
25391;SDS011;13329;48.402;11.718;2023-06-26T09:26:55;9.57;;;4.88;;
25391;SDS011;13329;48.402;11.718;2023-06-26T09:29:20;11.35;;;4.75;;
25391;SDS011;13329;48.402;11.718;2023-06-26T09:31:45;8.10;;;4.80;;
25391;SDS011;13329;48.402;11.718;2023-06-26T09:34:11;8.63;;;4.93;;
25391;SDS011;13329;48.402;11.718;2023-06-26T09:36:36;8.07;;;4.10;;
25391;SDS011;13329;48.402;11.718;2023-06-26T09:39:02;7.05;;;4.05;;
25391;SDS011;13329;48.402;11.718;2023-06-26T09:41:27;8.52;;;4.90;;
25391;SDS011;13329;48.402;11.718;2023-06-26T09:43:53;10.00;;;4.88;;
25391;SDS011;13329;48.402;11.718;2023-06-26T09:46:25;7.33;;;4.63;;
25391;SDS011;13329;48.402;11.718;2023-06-26T09:51:29;9.48;;;5.03;;
25391;SDS011;13329;48.402;11.718;2023-06-26T09:53:55;7.30;;;4.15;;
25391;SDS011;13329;48.402;11.718;2023-06-26T09:56:20;8.13;;;4.65;;
25391;SDS011;13329;48.402;11.718;2023-06-26T09:58:47;6.10;;;4.00;;
25391;SDS011;13329;48.402;11.718;2023-06-26T10:01:12;8.30;;;4.33;;
25391;SDS011;13329;48.402;11.718;2023-06-26T10:03:37;6.00;;;3.85;;
25391;SDS011;13329;48.402;11.718;2023-06-26T10:06:03;8.20;;;4.63;;
25391;SDS011;13329;48.402;11.718;2023-06-26T10:08:29;7.50;;;4.57;;
25391;SDS011;13329;48.402;11.718;2023-06-26T10:10:54;7.50;;;3.97;;
25391;SDS011;13329;48.402;11.718;2023-06-26T10:13:29;7.15;;;4.32;;
25391;SDS011;13329;48.402;11.718;2023-06-26T10:15:55;7.28;;;4.57;;
25391;SDS011;13329;48.402;11.718;2023-06-26T10:18:23;5.75;;;4.10;;
25391;SDS011;13329;48.402;11.718;2023-06-26T10:20:49;6.95;;;4.40;;
25391;SDS011;13329;48.402;11.718;2023-06-26T10:23:16;14.68;;;5.03;;
25391;SDS011;13329;48.402;11.718;2023-06-26T10:25:44;10.18;;;4.75;;
25391;SDS011;13329;48.402;11.718;2023-06-26T10:28:11;7.10;;;3.88;;
25391;SDS011;13329;48.402;11.718;2023-06-26T10:30:37;6.28;;;4.00;;
25391;SDS011;13329;48.402;11.718;2023-06-26T10:33:03;9.20;;;4.07;;
25391;SDS011;13329;48.402;11.718;2023-06-26T10:35:29;5.07;;;3.88;;
25391;SDS011;13329;48.402;11.718;2023-06-26T10:37:59;8.65;;;4.10;;
25391;SDS011;13329;48.402;11.718;2023-06-26T10:40:25;6.55;;;4.25;;
25391;SDS011;13329;48.402;11.718;2023-06-26T10:42:51;6.82;;;3.90;;
25391;SDS011;13329;48.402;11.718;2023-06-26T10:45:17;6.18;;;4.03;;
25391;SDS011;13329;48.402;11.718;2023-06-26T10:47:44;6.70;;;3.97;;
25391;SDS011;13329;48.402;11.718;2023-06-26T10:50:18;7.03;;;4.30;;
25391;SDS011;13329;48.402;11.718;2023-06-26T10:52:44;9.27;;;4.90;;
25391;SDS011;13329;48.402;11.718;2023-06-26T10:55:09;5.87;;;4.17;;
25391;SDS011;13329;48.402;11.718;2023-06-26T10:57:35;9.87;;;4.30;;
25391;SDS011;13329;48.402;11.718;2023-06-26T11:00:10;7.28;;;4.53;;
25391;SDS011;13329;48.402;11.718;2023-06-26T11:02:48;7.18;;;4.10;;
25391;SDS011;13329;48.402;11.718;2023-06-26T11:05:23;5.20;;;3.47;;
25391;SDS011;13329;48.402;11.718;2023-06-26T11:08:04;6.15;;;4.00;;
25391;SDS011;13329;48.402;11.718;2023-06-26T11:10:29;5.57;;;3.53;;
25391;SDS011;13329;48.402;11.718;2023-06-26T11:12:54;6.07;;;3.73;;
25391;SDS011;13329;48.402;11.718;2023-06-26T11:15:22;6.32;;;4.13;;
25391;SDS011;13329;48.402;11.718;2023-06-26T11:17:49;6.47;;;3.50;;
25391;SDS011;13329;48.402;11.718;2023-06-26T11:20:15;4.43;;;3.40;;
25391;SDS011;13329;48.402;11.718;2023-06-26T11:22:41;5.68;;;3.70;;
25391;SDS011;13329;48.402;11.718;2023-06-26T11:25:07;6.30;;;3.78;;
25391;SDS011;13329;48.402;11.718;2023-06-26T11:27:42;5.75;;;3.90;;
25391;SDS011;13329;48.402;11.718;2023-06-26T11:30:08;5.57;;;3.72;;
25391;SDS011;13329;48.402;11.718;2023-06-26T11:32:33;5.68;;;3.40;;
25391;SDS011;13329;48.402;11.718;2023-06-26T11:34:59;4.32;;;3.25;;
25391;SDS011;13329;48.402;11.718;2023-06-26T11:37:24;5.13;;;3.67;;
25391;SDS011;13329;48.402;11.718;2023-06-26T11:39:50;5.45;;;3.83;;
25391;SDS011;13329;48.402;11.718;2023-06-26T11:42:16;6.07;;;3.65;;
25391;SDS011;13329;48.402;11.718;2023-06-26T11:44:41;6.80;;;3.80;;
25391;SDS011;13329;48.402;11.718;2023-06-26T11:47:07;5.90;;;3.80;;
25391;SDS011;13329;48.402;11.718;2023-06-26T11:49:32;5.40;;;3.70;;
25391;SDS011;13329;48.402;11.718;2023-06-26T11:51:58;4.83;;;3.50;;
25391;SDS011;13329;48.402;11.718;2023-06-26T11:54:24;7.13;;;4.20;;
25391;SDS011;13329;48.402;11.718;2023-06-26T11:56:54;5.53;;;3.60;;
25391;SDS011;13329;48.402;11.718;2023-06-26T11:59:21;6.15;;;3.92;;
25391;SDS011;13329;48.402;11.718;2023-06-26T12:01:46;6.00;;;3.70;;
25391;SDS011;13329;48.402;11.718;2023-06-26T12:04:13;5.77;;;3.87;;
25391;SDS011;13329;48.402;11.718;2023-06-26T12:06:40;5.72;;;3.92;;
25391;SDS011;13329;48.402;11.718;2023-06-26T12:09:07;5.15;;;3.55;;
25391;SDS011;13329;48.402;11.718;2023-06-26T12:11:34;7.75;;;3.83;;
25391;SDS011;13329;48.402;11.718;2023-06-26T12:13:59;5.80;;;3.97;;
25391;SDS011;13329;48.402;11.718;2023-06-26T12:16:25;7.10;;;3.47;;
25391;SDS011;13329;48.402;11.718;2023-06-26T12:18:50;4.70;;;3.80;;
25391;SDS011;13329;48.402;11.718;2023-06-26T12:21:29;4.93;;;3.05;;
25391;SDS011;13329;48.402;11.718;2023-06-26T12:24:00;5.70;;;3.67;;
25391;SDS011;13329;48.402;11.718;2023-06-26T12:26:26;4.65;;;3.45;;
25391;SDS011;13329;48.402;11.718;2023-06-26T12:28:51;6.22;;;3.63;;
25391;SDS011;13329;48.402;11.718;2023-06-26T12:31:16;6.20;;;3.90;;
25391;SDS011;13329;48.402;11.718;2023-06-26T12:33:44;5.07;;;3.13;;
25391;SDS011;13329;48.402;11.718;2023-06-26T12:36:10;6.03;;;3.85;;
25391;SDS011;13329;48.402;11.718;2023-06-26T12:38:36;6.03;;;3.75;;
25391;SDS011;13329;48.402;11.718;2023-06-26T12:41:01;4.70;;;3.47;;
25391;SDS011;13329;48.402;11.718;2023-06-26T12:43:26;6.63;;;4.07;;
25391;SDS011;13329;48.402;11.718;2023-06-26T12:45:54;5.57;;;3.53;;
25391;SDS011;13329;48.402;11.718;2023-06-26T12:48:20;4.68;;;3.53;;
25391;SDS011;13329;48.402;11.718;2023-06-26T12:50:46;5.67;;;3.53;;
25391;SDS011;13329;48.402;11.718;2023-06-26T12:53:11;5.70;;;3.57;;
25391;SDS011;13329;48.402;11.718;2023-06-26T12:55:36;8.83;;;3.80;;
25391;SDS011;13329;48.402;11.718;2023-06-26T12:58:01;5.82;;;3.92;;
25391;SDS011;13329;48.402;11.718;2023-06-26T13:00:26;5.40;;;3.63;;
25391;SDS011;13329;48.402;11.718;2023-06-26T13:02:52;6.90;;;3.97;;
25391;SDS011;13329;48.402;11.718;2023-06-26T13:05:17;5.40;;;3.53;;
25391;SDS011;13329;48.402;11.718;2023-06-26T13:07:42;6.23;;;3.70;;
25391;SDS011;13329;48.402;11.718;2023-06-26T13:10:07;6.30;;;4.18;;
25391;SDS011;13329;48.402;11.718;2023-06-26T13:12:33;5.68;;;3.58;;
25391;SDS011;13329;48.402;11.718;2023-06-26T13:14:58;6.60;;;4.15;;
25391;SDS011;13329;48.402;11.718;2023-06-26T13:17:23;6.78;;;4.35;;
25391;SDS011;13329;48.402;11.718;2023-06-26T13:19:48;7.10;;;3.70;;
25391;SDS011;13329;48.402;11.718;2023-06-26T13:22:14;6.65;;;3.67;;
25391;SDS011;13329;48.402;11.718;2023-06-26T13:24:39;9.03;;;3.90;;
25391;SDS011;13329;48.402;11.718;2023-06-26T13:27:04;4.10;;;3.10;;
25391;SDS011;13329;48.402;11.718;2023-06-26T13:29:31;5.40;;;3.70;;
25391;SDS011;13329;48.402;11.718;2023-06-26T13:31:56;9.90;;;4.85;;
25391;SDS011;13329;48.402;11.718;2023-06-26T13:34:22;7.50;;;4.13;;
25391;SDS011;13329;48.402;11.718;2023-06-26T13:36:48;3.65;;;2.67;;
25391;SDS011;13329;48.402;11.718;2023-06-26T13:39:13;6.27;;;3.97;;
25391;SDS011;13329;48.402;11.718;2023-06-26T13:41:38;11.23;;;3.87;;
25391;SDS011;13329;48.402;11.718;2023-06-26T13:44:03;7.65;;;3.67;;
25391;SDS011;13329;48.402;11.718;2023-06-26T13:46:28;5.63;;;3.58;;
25391;SDS011;13329;48.402;11.718;2023-06-26T13:48:53;6.75;;;3.47;;
25391;SDS011;13329;48.402;11.718;2023-06-26T13:51:19;5.70;;;3.63;;
25391;SDS011;13329;48.402;11.718;2023-06-26T13:53:44;4.20;;;2.97;;
25391;SDS011;13329;48.402;11.718;2023-06-26T13:56:09;5.30;;;3.43;;
25391;SDS011;13329;48.402;11.718;2023-06-26T13:58:35;6.17;;;3.43;;
25391;SDS011;13329;48.402;11.718;2023-06-26T14:01:01;6.20;;;3.63;;
25391;SDS011;13329;48.402;11.718;2023-06-26T14:03:26;5.50;;;3.73;;
25391;SDS011;13329;48.402;11.718;2023-06-26T14:05:52;6.28;;;3.70;;
25391;SDS011;13329;48.402;11.718;2023-06-26T14:08:17;6.07;;;4.00;;
25391;SDS011;13329;48.402;11.718;2023-06-26T14:10:42;5.73;;;3.67;;
25391;SDS011;13329;48.402;11.718;2023-06-26T14:13:08;5.50;;;3.63;;
25391;SDS011;13329;48.402;11.718;2023-06-26T14:15:34;6.10;;;3.35;;
25391;SDS011;13329;48.402;11.718;2023-06-26T14:18:00;7.40;;;3.50;;
25391;SDS011;13329;48.402;11.718;2023-06-26T14:20:27;5.15;;;3.50;;
25391;SDS011;13329;48.402;11.718;2023-06-26T14:22:53;6.05;;;3.58;;
25391;SDS011;13329;48.402;11.718;2023-06-26T14:25:18;5.82;;;3.47;;
25391;SDS011;13329;48.402;11.718;2023-06-26T14:27:44;6.03;;;4.07;;
25391;SDS011;13329;48.402;11.718;2023-06-26T14:30:09;5.70;;;3.70;;
25391;SDS011;13329;48.402;11.718;2023-06-26T14:32:34;5.00;;;3.78;;